Kent, Oregon
Current Conditions -  °F | °C
As of 7:53 AM on Friday 24 Oct 2014 (Local Time) from KDLS Reporting Station
Overcast Overcast  
Wind Chill: 47°   Ceiling: 900
Heat Index: 47°   Visibility: 10mi
Dew Point: 45°   Wind: 3mph
Humidity: 93%   Direction: 100°E
Pressure: 30.07"   Gusts: NA
Location:  45.2°N, 120.7°W
Report Text: KDLS 241453Z AUTO 10003KT 10SM OVC009 08/07 A3007 RMK AO2 SLP184 T00830072 50004
Loading
Personal Weather Stations






























Interactive Weather Map
Tropical Storm Tracking
New forecast layout! Learn more

10-Day Weather Forecast

Advertisements
Track Severe Weather on mobile